sensor_id;sensor_type;location;lat;lon;timestamp;P1;durP1;ratioP1;P2;durP2;ratioP2
8254;SDS011;4167;48.162;11.542;2023-07-13T00:01:25;58.67;;;11.82;;
8254;SDS011;4167;48.162;11.542;2023-07-13T00:03:51;86.93;;;14.00;;
8254;SDS011;4167;48.162;11.542;2023-07-13T00:06:18;108.40;;;15.40;;
8254;SDS011;4167;48.162;11.542;2023-07-13T00:08:47;96.45;;;13.23;;
8254;SDS011;4167;48.162;11.542;2023-07-13T00:11:14;59.63;;;11.93;;
8254;SDS011;4167;48.162;11.542;2023-07-13T00:13:41;60.95;;;12.07;;
8254;SDS011;4167;48.162;11.542;2023-07-13T00:16:08;82.22;;;12.38;;
8254;SDS011;4167;48.162;11.542;2023-07-13T00:18:35;84.22;;;12.35;;
8254;SDS011;4167;48.162;11.542;2023-07-13T00:21:02;60.55;;;11.23;;
8254;SDS011;4167;48.162;11.542;2023-07-13T00:23:30;55.70;;;11.35;;
8254;SDS011;4167;48.162;11.542;2023-07-13T00:26:00;76.35;;;12.85;;
8254;SDS011;4167;48.162;11.542;2023-07-13T00:28:27;79.20;;;12.65;;
8254;SDS011;4167;48.162;11.542;2023-07-13T00:30:53;74.50;;;12.20;;
8254;SDS011;4167;48.162;11.542;2023-07-13T00:33:20;140.50;;;17.88;;
8254;SDS011;4167;48.162;11.542;2023-07-13T00:35:47;83.43;;;13.82;;
8254;SDS011;4167;48.162;11.542;2023-07-13T00:38:14;55.13;;;11.63;;
8254;SDS011;4167;48.162;11.542;2023-07-13T00:40:41;97.88;;;14.05;;
8254;SDS011;4167;48.162;11.542;2023-07-13T00:43:10;72.10;;;10.88;;
8254;SDS011;4167;48.162;11.542;2023-07-13T00:48:38;86.00;;;13.60;;
8254;SDS011;4167;48.162;11.542;2023-07-13T00:51:05;58.35;;;10.70;;
8254;SDS011;4167;48.162;11.542;2023-07-13T00:53:31;70.38;;;17.10;;
8254;SDS011;4167;48.162;11.542;2023-07-13T00:55:58;85.03;;;15.48;;
8254;SDS011;4167;48.162;11.542;2023-07-13T00:58:27;102.10;;;13.35;;
8254;SDS011;4167;48.162;11.542;2023-07-13T01:00:54;99.70;;;14.90;;
8254;SDS011;4167;48.162;11.542;2023-07-13T01:03:21;91.95;;;13.20;;
8254;SDS011;4167;48.162;11.542;2023-07-13T01:05:47;123.95;;;18.02;;
8254;SDS011;4167;48.162;11.542;2023-07-13T01:08:15;79.32;;;11.70;;
8254;SDS011;4167;48.162;11.542;2023-07-13T01:10:50;130.02;;;16.63;;
8254;SDS011;4167;48.162;11.542;2023-07-13T01:13:17;71.90;;;10.10;;
8254;SDS011;4167;48.162;11.542;2023-07-13T01:15:46;100.43;;;15.07;;
8254;SDS011;4167;48.162;11.542;2023-07-13T01:18:15;66.57;;;11.20;;
8254;SDS011;4167;48.162;11.542;2023-07-13T01:20:50;134.82;;;18.63;;
8254;SDS011;4167;48.162;11.542;2023-07-13T01:23:17;92.50;;;18.42;;
8254;SDS011;4167;48.162;11.542;2023-07-13T01:25:44;125.13;;;16.67;;
8254;SDS011;4167;48.162;11.542;2023-07-13T01:28:10;114.90;;;15.48;;
8254;SDS011;4167;48.162;11.542;2023-07-13T01:30:37;80.72;;;12.73;;
8254;SDS011;4167;48.162;11.542;2023-07-13T01:33:05;95.05;;;12.00;;
8254;SDS011;4167;48.162;11.542;2023-07-13T01:37:59;96.55;;;13.75;;
8254;SDS011;4167;48.162;11.542;2023-07-13T01:40:26;207.93;;;22.75;;
8254;SDS011;4167;48.162;11.542;2023-07-13T01:42:53;131.98;;;18.83;;
8254;SDS011;4167;48.162;11.542;2023-07-13T01:45:19;87.88;;;14.85;;
8254;SDS011;4167;48.162;11.542;2023-07-13T01:47:46;167.10;;;19.35;;
8254;SDS011;4167;48.162;11.542;2023-07-13T01:50:12;80.20;;;15.23;;
8254;SDS011;4167;48.162;11.542;2023-07-13T01:52:39;151.35;;;20.63;;
8254;SDS011;4167;48.162;11.542;2023-07-13T01:55:07;59.15;;;11.30;;
8254;SDS011;4167;48.162;11.542;2023-07-13T01:57:34;109.88;;;16.50;;
8254;SDS011;4167;48.162;11.542;2023-07-13T02:00:01;89.47;;;16.00;;
8254;SDS011;4167;48.162;11.542;2023-07-13T02:02:29;91.93;;;16.63;;
8254;SDS011;4167;48.162;11.542;2023-07-13T02:04:56;154.57;;;19.88;;
8254;SDS011;4167;48.162;11.542;2023-07-13T02:07:22;96.88;;;16.08;;
8254;SDS011;4167;48.162;11.542;2023-07-13T02:09:49;153.02;;;20.70;;
8254;SDS011;4167;48.162;11.542;2023-07-13T02:12:17;102.65;;;15.15;;
8254;SDS011;4167;48.162;11.542;2023-07-13T02:14:43;101.10;;;15.48;;
8254;SDS011;4167;48.162;11.542;2023-07-13T02:17:10;91.80;;;16.30;;
8254;SDS011;4167;48.162;11.542;2023-07-13T02:19:36;57.85;;;12.25;;
8254;SDS011;4167;48.162;11.542;2023-07-13T02:22:03;94.20;;;13.90;;
8254;SDS011;4167;48.162;11.542;2023-07-13T02:24:30;115.55;;;22.55;;
8254;SDS011;4167;48.162;11.542;2023-07-13T02:26:56;143.38;;;19.15;;
8254;SDS011;4167;48.162;11.542;2023-07-13T02:29:24;91.63;;;14.23;;
8254;SDS011;4167;48.162;11.542;2023-07-13T02:31:50;90.03;;;14.88;;
8254;SDS011;4167;48.162;11.542;2023-07-13T02:34:17;106.82;;;21.98;;
8254;SDS011;4167;48.162;11.542;2023-07-13T02:36:43;109.60;;;16.13;;
8254;SDS011;4167;48.162;11.542;2023-07-13T02:39:10;122.10;;;16.77;;
8254;SDS011;4167;48.162;11.542;2023-07-13T02:41:37;111.75;;;16.80;;
8254;SDS011;4167;48.162;11.542;2023-07-13T02:44:04;67.63;;;13.57;;
8254;SDS011;4167;48.162;11.542;2023-07-13T02:46:32;53.00;;;12.32;;
8254;SDS011;4167;48.162;11.542;2023-07-13T02:49:00;77.22;;;17.90;;
8254;SDS011;4167;48.162;11.542;2023-07-13T02:51:26;55.75;;;13.63;;
8254;SDS011;4167;48.162;11.542;2023-07-13T02:53:53;90.93;;;14.25;;
8254;SDS011;4167;48.162;11.542;2023-07-13T02:56:21;50.63;;;12.50;;
8254;SDS011;4167;48.162;11.542;2023-07-13T02:58:48;88.93;;;15.00;;
8254;SDS011;4167;48.162;11.542;2023-07-13T03:01:15;51.67;;;13.82;;
8254;SDS011;4167;48.162;11.542;2023-07-13T03:03:45;74.78;;;15.52;;
8254;SDS011;4167;48.162;11.542;2023-07-13T03:06:12;52.80;;;12.73;;
8254;SDS011;4167;48.162;11.542;2023-07-13T03:08:39;61.65;;;12.43;;
8254;SDS011;4167;48.162;11.542;2023-07-13T03:11:07;72.25;;;11.55;;
8254;SDS011;4167;48.162;11.542;2023-07-13T03:13:36;88.22;;;16.02;;
8254;SDS011;4167;48.162;11.542;2023-07-13T03:16:02;86.38;;;13.50;;
8254;SDS011;4167;48.162;11.542;2023-07-13T03:18:29;87.55;;;21.77;;
8254;SDS011;4167;48.162;11.542;2023-07-13T03:20:57;68.93;;;14.07;;
8254;SDS011;4167;48.162;11.542;2023-07-13T03:23:24;63.80;;;12.18;;
8254;SDS011;4167;48.162;11.542;2023-07-13T03:26:00;72.18;;;12.77;;
8254;SDS011;4167;48.162;11.542;2023-07-13T03:38:50;166.52;;;24.00;;
8254;SDS011;4167;48.162;11.542;2023-07-13T03:41:18;50.75;;;9.70;;
8254;SDS011;4167;48.162;11.542;2023-07-13T03:43:45;79.43;;;13.00;;
8254;SDS011;4167;48.162;11.542;2023-07-13T03:46:13;63.90;;;11.82;;
8254;SDS011;4167;48.162;11.542;2023-07-13T03:48:40;96.55;;;13.05;;
8254;SDS011;4167;48.162;11.542;2023-07-13T03:51:08;83.97;;;13.18;;
8254;SDS011;4167;48.162;11.542;2023-07-13T03:53:37;100.50;;;15.20;;
8254;SDS011;4167;48.162;11.542;2023-07-13T03:56:05;84.88;;;13.00;;
8254;SDS011;4167;48.162;11.542;2023-07-13T03:58:33;89.43;;;12.38;;
8254;SDS011;4167;48.162;11.542;2023-07-13T04:01:01;121.43;;;16.33;;
8254;SDS011;4167;48.162;11.542;2023-07-13T04:03:29;58.42;;;11.23;;
8254;SDS011;4167;48.162;11.542;2023-07-13T04:05:57;100.03;;;12.90;;
8254;SDS011;4167;48.162;11.542;2023-07-13T04:08:25;71.85;;;11.70;;
8254;SDS011;4167;48.162;11.542;2023-07-13T04:10:53;114.32;;;17.13;;
8254;SDS011;4167;48.162;11.542;2023-07-13T04:13:20;37.00;;;8.98;;
8254;SDS011;4167;48.162;11.542;2023-07-13T04:15:47;83.80;;;12.60;;
8254;SDS011;4167;48.162;11.542;2023-07-13T04:18:13;68.88;;;16.10;;
8254;SDS011;4167;48.162;11.542;2023-07-13T04:20:40;121.00;;;15.30;;
8254;SDS011;4167;48.162;11.542;2023-07-13T04:23:06;75.97;;;13.32;;
8254;SDS011;4167;48.162;11.542;2023-07-13T04:25:33;103.00;;;15.35;;
8254;SDS011;4167;48.162;11.542;2023-07-13T04:27:59;102.60;;;13.75;;
8254;SDS011;4167;48.162;11.542;2023-07-13T04:30:27;67.43;;;10.40;;
8254;SDS011;4167;48.162;11.542;2023-07-13T04:32:54;106.43;;;16.92;;
8254;SDS011;4167;48.162;11.542;2023-07-13T04:35:20;74.50;;;14.30;;
8254;SDS011;4167;48.162;11.542;2023-07-13T04:37:47;63.55;;;11.85;;
8254;SDS011;4167;48.162;11.542;2023-07-13T04:40:15;49.28;;;10.50;;
8254;SDS011;4167;48.162;11.542;2023-07-13T04:42:41;64.03;;;11.40;;
8254;SDS011;4167;48.162;11.542;2023-07-13T04:45:08;73.25;;;14.30;;
8254;SDS011;4167;48.162;11.542;2023-07-13T04:47:36;73.38;;;12.27;;
8254;SDS011;4167;48.162;11.542;2023-07-13T04:50:03;152.32;;;19.13;;
8254;SDS011;4167;48.162;11.542;2023-07-13T04:54:58;257.60;;;30.20;;
8254;SDS011;4167;48.162;11.542;2023-07-13T04:57:24;81.05;;;13.65;;
8254;SDS011;4167;48.162;11.542;2023-07-13T04:59:51;118.20;;;16.00;;
8254;SDS011;4167;48.162;11.542;2023-07-13T05:02:18;126.05;;;16.60;;
8254;SDS011;4167;48.162;11.542;2023-07-13T05:04:47;80.90;;;13.75;;
8254;SDS011;4167;48.162;11.542;2023-07-13T05:07:14;87.72;;;13.60;;
8254;SDS011;4167;48.162;11.542;2023-07-13T05:09:40;69.43;;;13.63;;
8254;SDS011;4167;48.162;11.542;2023-07-13T05:12:08;109.03;;;15.55;;
8254;SDS011;4167;48.162;11.542;2023-07-13T05:14:35;55.30;;;10.65;;
8254;SDS011;4167;48.162;11.542;2023-07-13T05:17:01;137.20;;;15.93;;
8254;SDS011;4167;48.162;11.542;2023-07-13T05:19:28;123.30;;;15.93;;
8254;SDS011;4167;48.162;11.542;2023-07-13T05:21:56;118.55;;;16.17;;
8254;SDS011;4167;48.162;11.542;2023-07-13T05:24:22;92.25;;;13.52;;
8254;SDS011;4167;48.162;11.542;2023-07-13T05:26:49;95.20;;;20.17;;
8254;SDS011;4167;48.162;11.542;2023-07-13T05:29:16;101.72;;;14.27;;
8254;SDS011;4167;48.162;11.542;2023-07-13T05:31:42;117.90;;;15.35;;
8254;SDS011;4167;48.162;11.542;2023-07-13T05:34:09;144.57;;;18.27;;
8254;SDS011;4167;48.162;11.542;2023-07-13T05:36:35;108.22;;;14.85;;
8254;SDS011;4167;48.162;11.542;2023-07-13T05:39:03;140.20;;;17.65;;
8254;SDS011;4167;48.162;11.542;2023-07-13T05:41:30;46.92;;;12.10;;
8254;SDS011;4167;48.162;11.542;2023-07-13T05:43:56;86.50;;;13.35;;
8254;SDS011;4167;48.162;11.542;2023-07-13T05:46:23;75.25;;;12.75;;
8254;SDS011;4167;48.162;11.542;2023-07-13T05:48:49;80.15;;;13.05;;
8254;SDS011;4167;48.162;11.542;2023-07-13T05:51:15;53.22;;;10.52;;
8254;SDS011;4167;48.162;11.542;2023-07-13T05:53:42;105.88;;;15.48;;
8254;SDS011;4167;48.162;11.542;2023-07-13T05:56:10;95.50;;;14.88;;
8254;SDS011;4167;48.162;11.542;2023-07-13T05:58:36;71.55;;;14.07;;
8254;SDS011;4167;48.162;11.542;2023-07-13T06:01:05;99.68;;;14.45;;
8254;SDS011;4167;48.162;11.542;2023-07-13T06:03:32;102.22;;;15.98;;
8254;SDS011;4167;48.162;11.542;2023-07-13T06:05:59;117.40;;;16.15;;
8254;SDS011;4167;48.162;11.542;2023-07-13T06:08:26;144.13;;;20.15;;
8254;SDS011;4167;48.162;11.542;2023-07-13T06:10:53;105.55;;;16.65;;
8254;SDS011;4167;48.162;11.542;2023-07-13T06:13:21;146.07;;;20.95;;
8254;SDS011;4167;48.162;11.542;2023-07-13T06:15:47;116.97;;;19.02;;
8254;SDS011;4167;48.162;11.542;2023-07-13T06:18:14;86.75;;;15.63;;
8254;SDS011;4167;48.162;11.542;2023-07-13T06:20:41;128.18;;;21.83;;
8254;SDS011;4167;48.162;11.542;2023-07-13T06:23:07;84.97;;;17.88;;
8254;SDS011;4167;48.162;11.542;2023-07-13T06:25:34;116.65;;;19.33;;
8254;SDS011;4167;48.162;11.542;2023-07-13T06:28:00;115.10;;;20.77;;
8254;SDS011;4167;48.162;11.542;2023-07-13T06:30:28;78.65;;;16.50;;
8254;SDS011;4167;48.162;11.542;2023-07-13T06:32:55;76.40;;;15.95;;
8254;SDS011;4167;48.162;11.542;2023-07-13T06:35:21;75.18;;;17.85;;
8254;SDS011;4167;48.162;11.542;2023-07-13T06:37:48;99.78;;;20.00;;
8254;SDS011;4167;48.162;11.542;2023-07-13T06:40:14;106.65;;;21.60;;
8254;SDS011;4167;48.162;11.542;2023-07-13T06:42:42;74.97;;;17.48;;
8254;SDS011;4167;48.162;11.542;2023-07-13T06:45:09;98.90;;;22.42;;
8254;SDS011;4167;48.162;11.542;2023-07-13T06:47:37;102.75;;;21.05;;
8254;SDS011;4167;48.162;11.542;2023-07-13T06:50:03;94.40;;;19.13;;
8254;SDS011;4167;48.162;11.542;2023-07-13T06:52:31;88.45;;;17.95;;
8254;SDS011;4167;48.162;11.542;2023-07-13T06:54:57;101.93;;;18.80;;
8254;SDS011;4167;48.162;11.542;2023-07-13T06:57:23;102.20;;;22.30;;
8254;SDS011;4167;48.162;11.542;2023-07-13T06:59:50;128.05;;;19.77;;
8254;SDS011;4167;48.162;11.542;2023-07-13T07:02:16;105.32;;;20.20;;
8254;SDS011;4167;48.162;11.542;2023-07-13T07:04:44;137.05;;;20.58;;
8254;SDS011;4167;48.162;11.542;2023-07-13T07:07:11;92.93;;;18.70;;
8254;SDS011;4167;48.162;11.542;2023-07-13T07:09:37;93.38;;;19.98;;
8254;SDS011;4167;48.162;11.542;2023-07-13T07:12:04;131.88;;;19.42;;
8254;SDS011;4167;48.162;11.542;2023-07-13T07:14:31;127.45;;;20.20;;
8254;SDS011;4167;48.162;11.542;2023-07-13T07:16:59;137.35;;;28.38;;
8254;SDS011;4167;48.162;11.542;2023-07-13T07:19:25;53.75;;;14.20;;
8254;SDS011;4167;48.162;11.542;2023-07-13T07:21:55;137.70;;;21.77;;
8254;SDS011;4167;48.162;11.542;2023-07-13T07:24:22;87.35;;;16.13;;
8254;SDS011;4167;48.162;11.542;2023-07-13T07:26:48;62.92;;;23.88;;
8254;SDS011;4167;48.162;11.542;2023-07-13T07:29:14;125.95;;;21.60;;
8254;SDS011;4167;48.162;11.542;2023-07-13T07:31:41;130.07;;;20.17;;
8254;SDS011;4167;48.162;11.542;2023-07-13T07:34:07;93.47;;;21.67;;
8254;SDS011;4167;48.162;11.542;2023-07-13T07:36:34;98.75;;;18.55;;
8254;SDS011;4167;48.162;11.542;2023-07-13T07:39:02;88.15;;;17.98;;
8254;SDS011;4167;48.162;11.542;2023-07-13T07:41:28;121.72;;;20.00;;
8254;SDS011;4167;48.162;11.542;2023-07-13T07:43:55;122.40;;;20.55;;
8254;SDS011;4167;48.162;11.542;2023-07-13T07:46:21;69.65;;;17.10;;
8254;SDS011;4167;48.162;11.542;2023-07-13T07:48:48;178.02;;;25.48;;
8254;SDS011;4167;48.162;11.542;2023-07-13T07:51:14;111.82;;;20.08;;
8254;SDS011;4167;48.162;11.542;2023-07-13T07:53:41;119.93;;;29.65;;
8254;SDS011;4167;48.162;11.542;2023-07-13T07:56:08;236.73;;;34.00;;
8254;SDS011;4167;48.162;11.542;2023-07-13T07:58:36;114.07;;;21.45;;
8254;SDS011;4167;48.162;11.542;2023-07-13T08:01:02;117.03;;;20.55;;
8254;SDS011;4167;48.162;11.542;2023-07-13T08:03:30;80.53;;;17.35;;
8254;SDS011;4167;48.162;11.542;2023-07-13T08:05:56;126.55;;;28.83;;
8254;SDS011;4167;48.162;11.542;2023-07-13T08:08:23;87.57;;;17.13;;
8254;SDS011;4167;48.162;11.542;2023-07-13T08:13:17;61.05;;;16.55;;
8254;SDS011;4167;48.162;11.542;2023-07-13T08:15:44;181.13;;;24.65;;
8254;SDS011;4167;48.162;11.542;2023-07-13T08:18:10;211.07;;;29.38;;
8254;SDS011;4167;48.162;11.542;2023-07-13T08:20:37;125.28;;;19.67;;
8254;SDS011;4167;48.162;11.542;2023-07-13T08:23:04;123.00;;;21.92;;
8254;SDS011;4167;48.162;11.542;2023-07-13T08:25:31;162.95;;;23.58;;
8254;SDS011;4167;48.162;11.542;2023-07-13T08:31:06;137.88;;;24.85;;
8254;SDS011;4167;48.162;11.542;2023-07-13T08:33:34;103.05;;;17.70;;
8254;SDS011;4167;48.162;11.542;2023-07-13T08:36:01;215.70;;;25.23;;
8254;SDS011;4167;48.162;11.542;2023-07-13T08:38:28;159.40;;;21.45;;
8254;SDS011;4167;48.162;11.542;2023-07-13T08:40:55;98.45;;;18.20;;
8254;SDS011;4167;48.162;11.542;2023-07-13T08:43:27;72.47;;;17.38;;
8254;SDS011;4167;48.162;11.542;2023-07-13T08:45:58;106.53;;;17.77;;
8254;SDS011;4167;48.162;11.542;2023-07-13T08:48:36;72.22;;;15.68;;
8254;SDS011;4167;48.162;11.542;2023-07-13T08:51:09;195.27;;;25.33;;
8254;SDS011;4167;48.162;11.542;2023-07-13T08:53:40;140.98;;;20.10;;
8254;SDS011;4167;48.162;11.542;2023-07-13T08:56:11;166.13;;;30.80;;
8254;SDS011;4167;48.162;11.542;2023-07-13T08:58:41;157.88;;;22.17;;
8254;SDS011;4167;48.162;11.542;2023-07-13T09:01:10;148.68;;;22.48;;
8254;SDS011;4167;48.162;11.542;2023-07-13T09:03:42;130.15;;;26.13;;
8254;SDS011;4167;48.162;11.542;2023-07-13T09:06:13;87.07;;;18.10;;
8254;SDS011;4167;48.162;11.542;2023-07-13T09:08:46;122.97;;;22.00;;
8254;SDS011;4167;48.162;11.542;2023-07-13T09:11:28;130.18;;;22.15;;
8254;SDS011;4167;48.162;11.542;2023-07-13T09:14:04;133.68;;;22.88;;
8254;SDS011;4167;48.162;11.542;2023-07-13T09:16:32;67.32;;;17.08;;
8254;SDS011;4167;48.162;11.542;2023-07-13T09:19:02;154.85;;;22.67;;
8254;SDS011;4167;48.162;11.542;2023-07-13T09:21:31;59.53;;;15.25;;
8254;SDS011;4167;48.162;11.542;2023-07-13T09:23:59;149.40;;;22.58;;
8254;SDS011;4167;48.162;11.542;2023-07-13T09:26:48;85.15;;;16.63;;
8254;SDS011;4167;48.162;11.542;2023-07-13T09:29:18;89.18;;;18.02;;
8254;SDS011;4167;48.162;11.542;2023-07-13T09:34:15;91.72;;;18.75;;
8254;SDS011;4167;48.162;11.542;2023-07-13T09:36:42;146.63;;;21.23;;
8254;SDS011;4167;48.162;11.542;2023-07-13T09:39:10;146.30;;;32.80;;
8254;SDS011;4167;48.162;11.542;2023-07-13T09:41:41;84.65;;;19.42;;
8254;SDS011;4167;48.162;11.542;2023-07-13T09:44:15;127.40;;;30.70;;
8254;SDS011;4167;48.162;11.542;2023-07-13T09:46:43;116.10;;;21.98;;
8254;SDS011;4167;48.162;11.542;2023-07-13T09:49:11;120.82;;;22.17;;
8254;SDS011;4167;48.162;11.542;2023-07-13T09:51:39;84.13;;;19.25;;
8254;SDS011;4167;48.162;11.542;2023-07-13T09:54:13;132.70;;;25.10;;
8254;SDS011;4167;48.162;11.542;2023-07-13T09:56:44;143.32;;;26.92;;
8254;SDS011;4167;48.162;11.542;2023-07-13T09:59:19;179.07;;;32.17;;
8254;SDS011;4167;48.162;11.542;2023-07-13T10:01:45;111.22;;;34.53;;
8254;SDS011;4167;48.162;11.542;2023-07-13T10:04:14;143.57;;;30.13;;
8254;SDS011;4167;48.162;11.542;2023-07-13T10:06:43;150.60;;;39.88;;
8254;SDS011;4167;48.162;11.542;2023-07-13T10:11:39;93.78;;;24.40;;
8254;SDS011;4167;48.162;11.542;2023-07-13T10:14:10;125.03;;;27.75;;
8254;SDS011;4167;48.162;11.542;2023-07-13T10:16:41;131.88;;;29.17;;
8254;SDS011;4167;48.162;11.542;2023-07-13T10:19:10;165.13;;;29.65;;
8254;SDS011;4167;48.162;11.542;2023-07-13T10:21:41;120.93;;;30.95;;
8254;SDS011;4167;48.162;11.542;2023-07-13T10:24:18;120.22;;;26.58;;
8254;SDS011;4167;48.162;11.542;2023-07-13T10:26:48;102.72;;;26.75;;
8254;SDS011;4167;48.162;11.542;2023-07-13T10:29:17;86.97;;;27.02;;
8254;SDS011;4167;48.162;11.542;2023-07-13T10:31:45;94.18;;;26.85;;
8254;SDS011;4167;48.162;11.542;2023-07-13T10:34:12;153.88;;;33.47;;
8254;SDS011;4167;48.162;11.542;2023-07-13T10:36:40;109.65;;;29.10;;
8254;SDS011;4167;48.162;11.542;2023-07-13T10:39:10;157.98;;;32.28;;
8254;SDS011;4167;48.162;11.542;2023-07-13T10:41:41;91.47;;;25.10;;
8254;SDS011;4167;48.162;11.542;2023-07-13T10:44:12;165.05;;;42.67;;
8254;SDS011;4167;48.162;11.542;2023-07-13T10:46:46;82.90;;;30.13;;
8254;SDS011;4167;48.162;11.542;2023-07-13T10:49:13;125.35;;;25.63;;
8254;SDS011;4167;48.162;11.542;2023-07-13T10:51:40;137.57;;;29.80;;
8254;SDS011;4167;48.162;11.542;2023-07-13T10:54:11;154.27;;;32.63;;
8254;SDS011;4167;48.162;11.542;2023-07-13T10:56:43;101.07;;;25.08;;
8254;SDS011;4167;48.162;11.542;2023-07-13T10:59:10;117.07;;;30.83;;
8254;SDS011;4167;48.162;11.542;2023-07-13T11:01:41;94.18;;;28.98;;
8254;SDS011;4167;48.162;11.542;2023-07-13T11:04:18;141.88;;;41.15;;
8254;SDS011;4167;48.162;11.542;2023-07-13T11:06:47;108.93;;;27.00;;
8254;SDS011;4167;48.162;11.542;2023-07-13T11:09:24;100.60;;;28.27;;
8254;SDS011;4167;48.162;11.542;2023-07-13T11:11:58;115.03;;;26.25;;
8254;SDS011;4167;48.162;11.542;2023-07-13T11:14:26;128.07;;;30.20;;
8254;SDS011;4167;48.162;11.542;2023-07-13T11:16:56;77.57;;;27.58;;
8254;SDS011;4167;48.162;11.542;2023-07-13T11:19:27;75.85;;;24.58;;
8254;SDS011;4167;48.162;11.542;2023-07-13T11:22:11;119.15;;;28.52;;
8254;SDS011;4167;48.162;11.542;2023-07-13T11:24:48;121.90;;;27.48;;
8254;SDS011;4167;48.162;11.542;2023-07-13T11:27:21;92.35;;;25.88;;
8254;SDS011;4167;48.162;11.542;2023-07-13T11:29:51;128.70;;;40.95;;
8254;SDS011;4167;48.162;11.542;2023-07-13T11:34:51;112.95;;;33.63;;
8254;SDS011;4167;48.162;11.542;2023-07-13T11:37:19;180.20;;;35.38;;
8254;SDS011;4167;48.162;11.542;2023-07-13T11:39:48;122.55;;;30.95;;
8254;SDS011;4167;48.162;11.542;2023-07-13T11:42:15;110.65;;;35.65;;
8254;SDS011;4167;48.162;11.542;2023-07-13T11:44:43;113.80;;;28.65;;
8254;SDS011;4167;48.162;11.542;2023-07-13T11:47:14;140.70;;;30.40;;
8254;SDS011;4167;48.162;11.542;2023-07-13T11:49:48;150.52;;;29.08;;
8254;SDS011;4167;48.162;11.542;2023-07-13T11:52:17;114.75;;;26.63;;
8254;SDS011;4167;48.162;11.542;2023-07-13T11:54:46;100.57;;;25.60;;
8254;SDS011;4167;48.162;11.542;2023-07-13T11:57:19;129.23;;;37.15;;
8254;SDS011;4167;48.162;11.542;2023-07-13T11:59:50;102.32;;;23.45;;
8254;SDS011;4167;48.162;11.542;2023-07-13T12:02:18;113.68;;;25.42;;
8254;SDS011;4167;48.162;11.542;2023-07-13T12:04:53;136.50;;;24.10;;
8254;SDS011;4167;48.162;11.542;2023-07-13T12:07:19;82.13;;;30.52;;
8254;SDS011;4167;48.162;11.542;2023-07-13T12:09:46;157.85;;;26.70;;
8254;SDS011;4167;48.162;11.542;2023-07-13T12:12:17;120.38;;;23.13;;
8254;SDS011;4167;48.162;11.542;2023-07-13T12:14:44;102.93;;;19.77;;
8254;SDS011;4167;48.162;11.542;2023-07-13T12:17:13;139.00;;;26.92;;
8254;SDS011;4167;48.162;11.542;2023-07-13T12:19:41;113.35;;;36.45;;
8254;SDS011;4167;48.162;11.542;2023-07-13T12:22:10;202.63;;;30.88;;
8254;SDS011;4167;48.162;11.542;2023-07-13T12:24:39;138.85;;;25.70;;
8254;SDS011;4167;48.162;11.542;2023-07-13T12:27:06;121.60;;;25.10;;
8254;SDS011;4167;48.162;11.542;2023-07-13T12:29:33;105.40;;;23.85;;
8254;SDS011;4167;48.162;11.542;2023-07-13T12:31:59;79.32;;;20.75;;
8254;SDS011;4167;48.162;11.542;2023-07-13T12:34:26;104.60;;;23.67;;
8254;SDS011;4167;48.162;11.542;2023-07-13T12:39:22;88.57;;;23.80;;
8254;SDS011;4167;48.162;11.542;2023-07-13T12:41:51;109.45;;;25.05;;
8254;SDS011;4167;48.162;11.542;2023-07-13T12:44:21;159.13;;;27.35;;
8254;SDS011;4167;48.162;11.542;2023-07-13T12:46:55;100.22;;;26.02;;
8254;SDS011;4167;48.162;11.542;2023-07-13T12:49:25;108.38;;;26.50;;
8254;SDS011;4167;48.162;11.542;2023-07-13T12:51:58;72.47;;;24.98;;
8254;SDS011;4167;48.162;11.542;2023-07-13T12:54:27;155.85;;;30.75;;
8254;SDS011;4167;48.162;11.542;2023-07-13T12:56:54;91.30;;;25.52;;
8254;SDS011;4167;48.162;11.542;2023-07-13T12:59:23;91.65;;;35.13;;
8254;SDS011;4167;48.162;11.542;2023-07-13T13:01:53;123.75;;;27.45;;
8254;SDS011;4167;48.162;11.542;2023-07-13T13:04:20;128.43;;;24.48;;
8254;SDS011;4167;48.162;11.542;2023-07-13T13:06:47;109.45;;;24.85;;
8254;SDS011;4167;48.162;11.542;2023-07-13T13:09:14;143.00;;;39.13;;
8254;SDS011;4167;48.162;11.542;2023-07-13T13:11:42;111.53;;;26.92;;
8254;SDS011;4167;48.162;11.542;2023-07-13T13:17:08;135.40;;;26.67;;
8254;SDS011;4167;48.162;11.542;2023-07-13T13:19:44;104.40;;;24.85;;
8254;SDS011;4167;48.162;11.542;2023-07-13T13:24:37;109.03;;;24.95;;
8254;SDS011;4167;48.162;11.542;2023-07-13T13:27:09;99.18;;;24.35;;
8254;SDS011;4167;48.162;11.542;2023-07-13T13:29:41;111.22;;;22.25;;
8254;SDS011;4167;48.162;11.542;2023-07-13T13:32:09;122.10;;;26.73;;
8254;SDS011;4167;48.162;11.542;2023-07-13T13:34:36;72.70;;;23.77;;
8254;SDS011;4167;48.162;11.542;2023-07-13T13:37:03;83.68;;;23.45;;
8254;SDS011;4167;48.162;11.542;2023-07-13T13:39:31;64.35;;;21.58;;
8254;SDS011;4167;48.162;11.542;2023-07-13T13:41:59;102.55;;;25.13;;
8254;SDS011;4167;48.162;11.542;2023-07-13T13:44:27;96.53;;;33.95;;
8254;SDS011;4167;48.162;11.542;2023-07-13T13:46:54;95.22;;;25.73;;
8254;SDS011;4167;48.162;11.542;2023-07-13T13:49:22;66.10;;;23.60;;
8254;SDS011;4167;48.162;11.542;2023-07-13T13:51:50;94.95;;;26.95;;
8254;SDS011;4167;48.162;11.542;2023-07-13T13:54:18;83.07;;;27.80;;
8254;SDS011;4167;48.162;11.542;2023-07-13T13:56:46;84.18;;;27.73;;
8254;SDS011;4167;48.162;11.542;2023-07-13T13:59:13;89.88;;;26.42;;
8254;SDS011;4167;48.162;11.542;2023-07-13T14:01:42;75.57;;;28.17;;
8254;SDS011;4167;48.162;11.542;2023-07-13T14:04:10;155.77;;;34.28;;
8254;SDS011;4167;48.162;11.542;2023-07-13T14:06:41;104.10;;;31.42;;
8254;SDS011;4167;48.162;11.542;2023-07-13T14:09:08;129.05;;;30.65;;
8254;SDS011;4167;48.162;11.542;2023-07-13T14:11:37;104.68;;;31.45;;
8254;SDS011;4167;48.162;11.542;2023-07-13T14:14:08;103.70;;;29.85;;
8254;SDS011;4167;48.162;11.542;2023-07-13T14:16:36;115.85;;;32.72;;
8254;SDS011;4167;48.162;11.542;2023-07-13T14:19:04;93.70;;;42.03;;
8254;SDS011;4167;48.162;11.542;2023-07-13T14:21:31;115.93;;;43.80;;
8254;SDS011;4167;48.162;11.542;2023-07-13T14:23:57;92.65;;;31.75;;
8254;SDS011;4167;48.162;11.542;2023-07-13T14:26:24;119.15;;;37.75;;
8254;SDS011;4167;48.162;11.542;2023-07-13T14:28:52;175.77;;;38.50;;
8254;SDS011;4167;48.162;11.542;2023-07-13T14:31:20;117.03;;;34.45;;
8254;SDS011;4167;48.162;11.542;2023-07-13T14:33:47;108.50;;;47.08;;
8254;SDS011;4167;48.162;11.542;2023-07-13T14:38:49;97.43;;;31.63;;
8254;SDS011;4167;48.162;11.542;2023-07-13T14:41:15;151.13;;;37.38;;
8254;SDS011;4167;48.162;11.542;2023-07-13T14:43:42;102.60;;;31.90;;
8254;SDS011;4167;48.162;11.542;2023-07-13T14:46:08;163.77;;;35.25;;
8254;SDS011;4167;48.162;11.542;2023-07-13T14:48:45;141.63;;;31.90;;
8254;SDS011;4167;48.162;11.542;2023-07-13T14:51:11;130.05;;;32.65;;
8254;SDS011;4167;48.162;11.542;2023-07-13T14:53:39;53.58;;;23.75;;
8254;SDS011;4167;48.162;11.542;2023-07-13T14:56:08;156.10;;;29.35;;
8254;SDS011;4167;48.162;11.542;2023-07-13T14:58:36;114.60;;;26.63;;
8254;SDS011;4167;48.162;11.542;2023-07-13T15:01:07;121.90;;;27.15;;
8254;SDS011;4167;48.162;11.542;2023-07-13T15:03:35;95.35;;;29.35;;
8254;SDS011;4167;48.162;11.542;2023-07-13T15:06:02;119.50;;;29.15;;
8254;SDS011;4167;48.162;11.542;2023-07-13T15:08:29;108.28;;;25.17;;
8254;SDS011;4167;48.162;11.542;2023-07-13T15:10:57;120.80;;;28.73;;
8254;SDS011;4167;48.162;11.542;2023-07-13T15:13:25;96.47;;;23.80;;
8254;SDS011;4167;48.162;11.542;2023-07-13T15:15:53;91.38;;;24.20;;